Center, Colorado
Current Conditions -  °F | °C
As of 5:50 AM on Friday 24 Oct 2014 (Local Time) from KRCV Reporting Station
Clear Clear  
Wind Chill: 33°   Ceiling: Unl
Heat Index: 41°   Visibility: 10mi
Dew Point: 30°   Wind: 14mph
Humidity: 66%   Direction: 270°W
Pressure: 30.42"   Gusts: NA
Location:  37.75°N, 106.11°W
Report Text: KRCV 241150Z AUTO 27012KT 10SM CLR 05/M01 A3042 RMK AO2 T00481010 10070 20045
Loading
Personal Weather Stations






























Interactive Weather Map
Tropical Storm Tracking
New forecast layout! Learn more

10-Day Weather Forecast

Advertisements
Track Severe Weather on mobile